createdAt,value
2019-03-24T00:00:29.050Z,7.47
2019-03-24T00:02:22.030Z,7.38
2019-03-24T00:03:22.066Z,7.39
2019-03-24T00:05:15.072Z,7.45
2019-03-24T00:06:15.104Z,7.36
2019-03-24T00:08:08.079Z,7.45
2019-03-24T00:09:08.132Z,7.40
2019-03-24T00:11:01.129Z,7.50
2019-03-24T00:12:01.172Z,7.35
2019-03-24T00:13:54.161Z,7.40
2019-03-24T00:14:54.208Z,7.39
2019-03-24T00:16:47.197Z,7.43
2019-03-24T00:17:47.236Z,7.45
2019-03-24T00:19:40.216Z,7.47
2019-03-24T00:20:40.271Z,7.45
2019-03-24T00:22:33.278Z,7.39
2019-03-24T00:23:33.303Z,7.35
2019-03-24T00:25:26.306Z,7.38
2019-03-24T00:26:26.365Z,7.35
2019-03-24T00:28:19.350Z,7.33
2019-03-24T00:29:19.398Z,7.31
2019-03-24T00:31:12.384Z,7.31
2019-03-24T00:32:12.430Z,7.32
2019-03-24T00:34:05.426Z,7.31
2019-03-24T00:35:05.517Z,7.29
2019-03-24T00:36:58.468Z,7.32
2019-03-24T00:37:58.501Z,7.24
2019-03-24T00:39:51.499Z,7.28
2019-03-24T00:40:51.539Z,7.29
2019-03-24T00:42:44.554Z,7.28
2019-03-24T00:43:44.579Z,7.28
2019-03-24T00:45:37.556Z,7.28
2019-03-24T00:46:37.610Z,7.32
2019-03-24T00:48:30.610Z,7.31
2019-03-24T00:49:30.645Z,7.29
2019-03-24T00:51:23.636Z,7.32
2019-03-24T00:52:23.678Z,7.29
2019-03-24T00:54:16.671Z,7.29
2019-03-24T00:55:16.710Z,7.25
2019-03-24T00:57:09.686Z,7.31
2019-03-24T00:58:09.743Z,7.29
2019-03-24T01:00:02.746Z,7.29
2019-03-24T01:01:02.770Z,7.31
2019-03-24T01:02:55.749Z,7.28
2019-03-24T01:03:55.809Z,7.25
2019-03-24T01:05:48.818Z,7.10
2019-03-24T01:06:48.857Z,7.14
2019-03-24T01:08:41.914Z,7.10
2019-03-24T01:09:41.899Z,7.17
2019-03-24T01:11:34.894Z,7.20
2019-03-24T01:12:34.940Z,7.11
2019-03-24T01:14:27.936Z,7.07
2019-03-24T01:15:27.973Z,7.11
2019-03-24T01:17:20.963Z,7.14
2019-03-24T01:18:21.009Z,7.18
2019-03-24T01:20:13.995Z,7.17
2019-03-24T01:21:14.035Z,7.11
2019-03-24T01:23:07.028Z,7.15
2019-03-24T01:24:07.072Z,7.11
2019-03-24T01:26:00.069Z,7.15
2019-03-24T01:27:00.103Z,7.14
2019-03-24T01:28:53.098Z,7.05
2019-03-24T01:29:53.147Z,7.03
2019-03-24T01:31:46.133Z,7.00
2019-03-24T01:32:46.170Z,7.03
2019-03-24T01:34:39.148Z,7.11
2019-03-24T01:35:39.204Z,7.05
2019-03-24T01:37:32.229Z,7.05
2019-03-24T01:38:32.263Z,7.05
2019-03-24T01:40:25.239Z,7.05
2019-03-24T01:41:25.295Z,7.05
2019-03-24T01:43:18.293Z,7.00
2019-03-24T01:44:18.352Z,6.95
2019-03-24T01:46:11.323Z,6.92
2019-03-24T01:47:11.362Z,6.85
2019-03-24T01:49:04.378Z,6.89
2019-03-24T01:50:04.430Z,6.88
2019-03-24T01:51:57.374Z,6.89
2019-03-24T01:52:57.429Z,6.85
2019-03-24T01:54:50.931Z,6.85
2019-03-24T01:55:50.963Z,6.85
2019-03-24T01:57:43.976Z,6.87
2019-03-24T01:58:44.017Z,6.85
2019-03-24T02:00:37.010Z,6.92
2019-03-24T02:01:37.045Z,6.82
2019-03-24T02:03:30.046Z,6.81
2019-03-24T02:04:30.288Z,6.85
2019-03-24T02:06:23.095Z,6.78
2019-03-24T02:07:23.118Z,6.75
2019-03-24T02:09:16.105Z,6.69
2019-03-24T02:10:16.157Z,6.74
2019-03-24T02:12:09.152Z,6.77
2019-03-24T02:13:09.190Z,6.75
2019-03-24T02:15:02.164Z,6.72
2019-03-24T02:16:09.376Z,6.64
2019-03-24T02:17:55.216Z,6.62
2019-03-24T02:18:55.253Z,6.62
2019-03-24T02:20:48.249Z,6.62
2019-03-24T02:21:48.284Z,6.63
2019-03-24T02:23:41.273Z,6.57
2019-03-24T02:24:41.332Z,6.57
2019-03-24T02:26:34.326Z,6.59
2019-03-24T02:27:34.363Z,6.56
2019-03-24T02:29:27.356Z,6.44
2019-03-24T02:30:27.409Z,6.57
2019-03-24T02:32:20.385Z,6.51
2019-03-24T02:33:20.433Z,6.48
2019-03-24T02:35:13.438Z,6.42
2019-03-24T02:36:13.465Z,6.42
2019-03-24T02:38:06.507Z,6.30
2019-03-24T02:39:06.538Z,6.33
2019-03-24T02:40:59.510Z,6.31
2019-03-24T02:41:59.566Z,6.30
2019-03-24T02:43:52.605Z,6.16
2019-03-24T02:44:52.631Z,6.22
2019-03-24T02:46:45.603Z,6.28
2019-03-24T02:47:45.672Z,6.24
2019-03-24T02:49:38.653Z,6.24
2019-03-24T02:50:38.696Z,6.24
2019-03-24T02:52:31.666Z,6.30
2019-03-24T02:53:31.727Z,6.22
2019-03-24T02:55:25.237Z,6.27
2019-03-24T02:56:25.261Z,6.07
2019-03-24T02:58:18.242Z,6.22
2019-03-24T02:59:18.294Z,6.11
2019-03-24T03:01:11.286Z,6.14
2019-03-24T03:02:11.322Z,6.16
2019-03-24T03:04:04.314Z,6.01
2019-03-24T03:05:04.408Z,6.16
2019-03-24T03:06:57.414Z,6.04
2019-03-24T03:07:57.428Z,6.04
2019-03-24T03:09:50.401Z,6.02
2019-03-24T03:10:50.436Z,6.04
2019-03-24T03:12:43.453Z,6.11
2019-03-24T03:13:43.464Z,6.05
2019-03-24T03:15:36.458Z,5.93
2019-03-24T03:16:38.613Z,5.93
2019-03-24T03:18:29.495Z,5.97
2019-03-24T03:19:29.533Z,5.90
2019-03-24T03:21:22.523Z,5.91
2019-03-24T03:22:22.557Z,5.89
2019-03-24T03:24:15.535Z,5.75
2019-03-24T03:25:15.598Z,5.79
2019-03-24T03:27:08.583Z,5.87
2019-03-24T03:28:08.632Z,5.80
2019-03-24T03:30:01.625Z,5.76
2019-03-24T03:31:01.658Z,5.72
2019-03-24T03:32:54.661Z,5.75
2019-03-24T03:33:54.711Z,5.71
2019-03-24T03:35:47.690Z,5.68
2019-03-24T03:36:47.722Z,5.71
2019-03-24T03:38:40.704Z,5.65
2019-03-24T03:39:40.773Z,5.65
2019-03-24T03:41:33.744Z,5.64
2019-03-24T03:42:33.795Z,5.62
2019-03-24T03:44:26.788Z,5.64
2019-03-24T03:45:26.835Z,5.62
2019-03-24T03:47:19.818Z,5.50
2019-03-24T03:48:19.856Z,5.56
2019-03-24T03:50:12.847Z,5.59
2019-03-24T03:51:12.895Z,5.56
2019-03-24T03:53:05.879Z,5.50
2019-03-24T03:54:05.926Z,5.50
2019-03-24T03:55:59.451Z,5.48
2019-03-24T03:56:59.484Z,5.51
2019-03-24T03:58:52.482Z,5.50
2019-03-24T03:59:52.524Z,5.53
2019-03-24T04:01:45.495Z,5.48
2019-03-24T04:02:45.550Z,5.47
2019-03-24T04:04:38.554Z,5.46
2019-03-24T04:05:38.579Z,5.43
2019-03-24T04:07:31.553Z,5.41
2019-03-24T04:08:31.628Z,5.44
2019-03-24T04:10:24.614Z,5.44
2019-03-24T04:11:24.646Z,5.43
2019-03-24T04:13:17.615Z,5.48
2019-03-24T04:14:17.673Z,5.38
2019-03-24T04:16:10.665Z,5.44
2019-03-24T04:17:10.701Z,5.43
2019-03-24T04:19:03.688Z,5.46
2019-03-24T04:20:03.741Z,5.36
2019-03-24T04:21:56.752Z,5.29
2019-03-24T04:22:56.770Z,5.32
2019-03-24T04:24:49.781Z,5.25
2019-03-24T04:25:49.841Z,5.29
2019-03-24T04:27:42.813Z,5.28
2019-03-24T04:28:42.867Z,5.28
2019-03-24T04:30:35.865Z,5.29
2019-03-24T04:31:35.905Z,5.17
2019-03-24T04:33:28.902Z,5.21
2019-03-24T04:34:28.943Z,5.25
2019-03-24T04:36:21.923Z,5.18
2019-03-24T04:37:21.962Z,5.21
2019-03-24T04:39:14.965Z,5.20
2019-03-24T04:40:15.007Z,5.15
2019-03-24T04:42:07.969Z,5.23
2019-03-24T04:43:08.027Z,5.18
2019-03-24T04:45:01.017Z,5.20
2019-03-24T04:46:01.055Z,5.14
2019-03-24T04:47:54.036Z,5.17
2019-03-24T04:48:54.084Z,5.15
2019-03-24T04:50:47.085Z,5.20
2019-03-24T04:51:47.111Z,5.18
2019-03-24T04:53:40.089Z,5.12
2019-03-24T04:54:40.143Z,5.11
2019-03-24T04:56:33.169Z,5.12
2019-03-24T04:57:33.170Z,5.05
2019-03-24T04:59:26.148Z,5.04
2019-03-24T05:00:26.203Z,5.05
2019-03-24T05:02:19.207Z,5.14
2019-03-24T05:03:19.233Z,5.20
2019-03-24T05:05:12.209Z,5.14
2019-03-24T05:06:12.263Z,5.15
2019-03-24T05:08:05.263Z,5.12
2019-03-24T05:09:05.294Z,5.17
2019-03-24T05:10:58.291Z,5.15
2019-03-24T05:11:58.338Z,5.11
2019-03-24T05:13:51.307Z,5.11
2019-03-24T05:14:51.376Z,5.15
2019-03-24T05:16:44.356Z,5.02
2019-03-24T05:17:44.391Z,5.04
2019-03-24T05:19:37.372Z,5.08
2019-03-24T05:20:37.427Z,5.11
2019-03-24T05:22:30.424Z,5.15
2019-03-24T05:23:30.459Z,5.10
2019-03-24T05:25:23.818Z,5.12
2019-03-24T05:26:23.491Z,5.08
2019-03-24T05:28:16.465Z,5.08
2019-03-24T05:29:16.519Z,5.12
2019-03-24T05:31:09.512Z,5.10
2019-03-24T05:32:09.548Z,5.11
2019-03-24T05:34:02.525Z,5.08
2019-03-24T05:35:02.584Z,5.02
2019-03-24T05:36:55.583Z,5.07
2019-03-24T05:37:55.615Z,5.12
2019-03-24T05:39:48.586Z,5.07
2019-03-24T05:40:48.642Z,5.05
2019-03-24T05:42:41.664Z,5.12
2019-03-24T05:43:41.674Z,5.12
2019-03-24T05:45:34.646Z,5.15
2019-03-24T05:46:34.700Z,5.15
2019-03-24T05:48:27.704Z,5.17
2019-03-24T05:49:27.732Z,5.23
2019-03-24T05:51:20.709Z,5.18
2019-03-24T05:52:20.764Z,5.21
2019-03-24T05:54:13.760Z,5.21
2019-03-24T05:55:13.792Z,5.28
2019-03-24T05:57:06.766Z,5.32
2019-03-24T05:58:06.818Z,5.25
2019-03-24T05:59:59.891Z,5.25
2019-03-24T06:00:59.863Z,5.26
2019-03-24T06:02:52.837Z,5.21
2019-03-24T06:03:52.921Z,5.15
2019-03-24T06:05:45.894Z,5.18
2019-03-24T06:06:45.920Z,5.12
2019-03-24T06:08:38.933Z,5.15
2019-03-24T06:09:38.988Z,5.05
2019-03-24T06:11:31.985Z,5.10
2019-03-24T06:12:32.018Z,5.15
2019-03-24T06:14:25.018Z,5.15
2019-03-24T06:15:25.050Z,5.29
2019-03-24T06:17:18.029Z,5.20
2019-03-24T06:18:18.080Z,5.26
2019-03-24T06:20:11.086Z,5.33
2019-03-24T06:21:11.122Z,5.28
2019-03-24T06:23:04.119Z,5.30
2019-03-24T06:24:04.155Z,5.30
2019-03-24T06:25:57.172Z,5.28
2019-03-24T06:26:57.185Z,5.28
2019-03-24T06:28:50.166Z,5.35
2019-03-24T06:29:50.222Z,5.29
2019-03-24T06:31:43.253Z,5.21
2019-03-24T06:32:43.269Z,5.25
2019-03-24T06:34:36.280Z,5.30
2019-03-24T06:35:36.297Z,5.25
2019-03-24T06:37:29.277Z,5.29
2019-03-24T06:38:29.344Z,5.41
2019-03-24T06:40:22.332Z,5.39
2019-03-24T06:41:22.365Z,5.44
2019-03-24T06:43:15.359Z,5.53
2019-03-24T06:44:15.399Z,5.53
2019-03-24T06:46:08.412Z,5.71
2019-03-24T06:47:08.426Z,5.73
2019-03-24T06:49:01.438Z,5.68
2019-03-24T06:50:01.466Z,5.75
2019-03-24T06:51:54.441Z,5.72
2019-03-24T06:52:54.507Z,5.73
2019-03-24T06:54:47.510Z,5.83
2019-03-24T06:55:47.538Z,5.75
2019-03-24T06:57:40.514Z,5.64
2019-03-24T06:58:40.637Z,5.69
2019-03-24T07:00:33.570Z,5.82
2019-03-24T07:01:33.607Z,5.82
2019-03-24T07:03:26.604Z,5.80
2019-03-24T07:04:26.639Z,5.80
2019-03-24T07:06:19.668Z,5.69
2019-03-24T07:07:19.708Z,5.75
2019-03-24T07:09:12.688Z,5.69
2019-03-24T07:10:12.742Z,5.72
2019-03-24T07:12:05.749Z,5.79
2019-03-24T07:13:05.785Z,5.71
2019-03-24T07:14:58.757Z,5.82
2019-03-24T07:15:58.823Z,5.83
2019-03-24T07:17:51.821Z,5.87
2019-03-24T07:18:51.852Z,5.90
2019-03-24T07:20:44.825Z,5.97
2019-03-24T07:21:44.911Z,6.07
2019-03-24T07:23:37.890Z,6.16
2019-03-24T07:24:37.929Z,6.24
2019-03-24T07:26:30.903Z,6.27
2019-03-24T07:27:30.958Z,6.24
2019-03-24T07:29:23.953Z,6.28
2019-03-24T07:30:23.989Z,6.24
2019-03-24T07:32:16.968Z,6.27
2019-03-24T07:33:17.022Z,6.30
2019-03-24T07:35:10.017Z,6.36
2019-03-24T07:36:10.053Z,6.31
2019-03-24T07:38:03.081Z,6.27
2019-03-24T07:39:03.092Z,6.22
2019-03-24T07:40:56.137Z,6.36
2019-03-24T07:41:56.135Z,6.45
2019-03-24T07:43:49.129Z,6.46
2019-03-24T07:44:49.230Z,6.49
2019-03-24T07:46:42.189Z,6.54
2019-03-24T07:47:42.234Z,6.70
2019-03-24T07:49:35.235Z,6.78
2019-03-24T07:50:35.295Z,6.87
2019-03-24T07:52:28.278Z,6.96
2019-03-24T07:53:28.377Z,6.97
2019-03-24T07:55:21.830Z,7.14
2019-03-24T07:56:21.861Z,7.18
2019-03-24T07:58:14.870Z,7.39
2019-03-24T07:59:14.911Z,7.45
2019-03-24T08:01:07.912Z,7.39
2019-03-24T08:02:07.944Z,7.45
2019-03-24T08:04:00.932Z,7.40
2019-03-24T08:05:00.984Z,7.28
2019-03-24T08:06:53.988Z,7.38
2019-03-24T08:07:54.015Z,7.42
2019-03-24T08:09:46.995Z,7.66
2019-03-24T08:10:47.049Z,7.72
2019-03-24T08:12:40.088Z,7.72
2019-03-24T08:13:40.085Z,7.63
2019-03-24T08:15:33.080Z,7.57
2019-03-24T08:16:33.120Z,7.70
2019-03-24T08:18:30.151Z,7.51
2019-03-24T08:19:26.681Z,7.51
2019-03-24T08:21:19.666Z,7.54
2019-03-24T08:22:19.713Z,7.51
2019-03-24T08:24:12.708Z,7.69
2019-03-24T08:25:12.745Z,8.13
2019-03-24T08:27:05.766Z,10.20
2019-03-24T08:28:05.783Z,10.53
2019-03-24T08:29:58.765Z,10.48
2019-03-24T08:30:58.820Z,9.98
2019-03-24T08:32:51.819Z,9.89
2019-03-24T08:33:51.855Z,10.04
2019-03-24T08:35:44.838Z,10.30
2019-03-24T08:36:44.898Z,10.35
2019-03-24T08:38:37.895Z,11.54
2019-03-24T08:39:37.934Z,13.30
2019-03-24T08:41:30.918Z,15.95
2019-03-24T08:42:30.975Z,15.97
2019-03-24T08:44:23.982Z,16.09
2019-03-24T08:45:24.018Z,16.81
2019-03-24T08:47:17.006Z,16.99
2019-03-24T08:48:17.069Z,17.65
2019-03-24T08:50:10.078Z,15.73
2019-03-24T08:51:10.124Z,14.92
2019-03-24T08:53:03.124Z,14.60
2019-03-24T08:54:03.170Z,14.99
2019-03-24T08:55:56.179Z,16.23
2019-03-24T08:56:56.221Z,15.42
2019-03-24T08:58:49.235Z,15.06
2019-03-24T08:59:49.272Z,14.53
2019-03-24T09:01:42.281Z,13.56
2019-03-24T09:02:42.323Z,14.44
2019-03-24T09:04:35.316Z,15.65
2019-03-24T09:05:35.386Z,14.45
2019-03-24T09:07:28.385Z,12.93
2019-03-24T09:08:28.426Z,12.58
2019-03-24T09:10:21.474Z,11.87
2019-03-24T09:11:30.907Z,11.80
2019-03-24T09:13:14.484Z,12.04
2019-03-24T09:14:14.546Z,11.94
2019-03-24T09:16:07.706Z,11.84
2019-03-24T09:17:07.602Z,11.72
2019-03-24T09:19:00.633Z,11.43
2019-03-24T09:20:00.666Z,11.19
2019-03-24T09:21:53.662Z,11.18
2019-03-24T09:22:53.709Z,11.07
2019-03-24T09:24:46.693Z,11.02
2019-03-24T09:25:46.754Z,10.89
2019-03-24T09:27:39.766Z,10.81
2019-03-24T09:28:39.797Z,10.84
2019-03-24T09:30:32.786Z,10.82
2019-03-24T09:31:32.842Z,10.89
2019-03-24T09:33:25.848Z,10.84
2019-03-24T09:34:25.885Z,10.79
2019-03-24T09:36:18.881Z,10.68
2019-03-24T09:37:18.928Z,10.54
2019-03-24T09:39:11.950Z,10.37
2019-03-24T09:40:12.000Z,10.38
2019-03-24T09:42:04.971Z,10.48
2019-03-24T09:43:05.072Z,10.44
2019-03-24T09:44:58.035Z,10.37
2019-03-24T09:45:58.075Z,10.51
2019-03-24T09:47:51.064Z,10.54
2019-03-24T09:48:51.118Z,10.64
2019-03-24T09:50:44.119Z,10.59
2019-03-24T09:51:44.159Z,10.49
2019-03-24T09:53:37.156Z,10.38
2019-03-24T09:54:37.217Z,10.48
2019-03-24T09:56:30.218Z,10.56
2019-03-24T09:57:30.256Z,10.51
2019-03-24T09:59:23.239Z,10.68
2019-03-24T10:00:23.293Z,10.54
2019-03-24T10:02:16.299Z,10.49
2019-03-24T10:03:16.337Z,10.35
2019-03-24T10:05:09.323Z,10.48
2019-03-24T10:06:09.402Z,10.37
2019-03-24T10:08:02.382Z,10.48
2019-03-24T10:09:02.413Z,10.38
2019-03-24T10:10:55.391Z,10.49
2019-03-24T10:11:55.449Z,10.54
2019-03-24T10:13:48.497Z,10.57
2019-03-24T10:14:48.501Z,10.67
2019-03-24T10:16:41.525Z,10.71
2019-03-24T10:17:41.540Z,10.69
2019-03-24T10:19:34.533Z,10.64
2019-03-24T10:20:34.575Z,10.69
2019-03-24T10:22:27.574Z,10.86
2019-03-24T10:23:27.624Z,10.82
2019-03-24T10:25:20.622Z,10.97
2019-03-24T10:26:20.658Z,11.00
2019-03-24T10:28:13.658Z,11.23
2019-03-24T10:29:13.696Z,11.19
2019-03-24T10:31:06.707Z,11.30
2019-03-24T10:32:06.750Z,11.33
2019-03-24T10:33:59.764Z,11.47
2019-03-24T10:34:59.819Z,11.63
2019-03-24T10:36:52.809Z,11.66
2019-03-24T10:37:52.850Z,11.84
2019-03-24T10:39:45.856Z,12.03
2019-03-24T10:40:45.891Z,12.10
2019-03-24T10:42:38.867Z,12.32
2019-03-24T10:43:38.953Z,12.43
2019-03-24T10:45:31.925Z,12.67
2019-03-24T10:46:31.962Z,12.80
2019-03-24T10:48:33.403Z,12.72
2019-03-24T10:49:25.430Z,12.70
2019-03-24T10:51:18.008Z,12.94
2019-03-24T10:52:18.063Z,12.97
2019-03-24T10:54:11.088Z,13.12
2019-03-24T10:55:11.122Z,13.09
2019-03-24T10:57:05.424Z,13.28
2019-03-24T10:58:04.166Z,13.28
2019-03-24T10:59:57.166Z,13.25
2019-03-24T11:00:57.205Z,13.27
2019-03-24T11:02:50.204Z,13.28
2019-03-24T11:03:50.244Z,13.27
2019-03-24T11:05:43.258Z,13.37
2019-03-24T11:06:43.289Z,13.31
2019-03-24T11:08:36.274Z,13.31
2019-03-24T11:09:36.333Z,12.98
2019-03-24T11:11:29.337Z,13.00
2019-03-24T11:12:29.375Z,13.01
2019-03-24T11:14:22.527Z,13.01
2019-03-24T11:15:22.575Z,12.94
2019-03-24T11:17:15.555Z,12.95
2019-03-24T11:18:15.618Z,13.00
2019-03-24T11:20:08.622Z,12.94
2019-03-24T11:21:08.955Z,13.01
2019-03-24T11:23:01.653Z,13.13
2019-03-24T11:24:01.704Z,13.16
2019-03-24T11:25:54.705Z,13.19
2019-03-24T11:26:54.757Z,13.15
2019-03-24T11:28:47.766Z,13.13
2019-03-24T11:29:47.825Z,13.16
2019-03-24T11:31:40.826Z,13.28
2019-03-24T11:32:40.866Z,13.28
2019-03-24T11:34:33.848Z,13.27
2019-03-24T11:35:33.908Z,13.46
2019-03-24T11:37:26.911Z,13.49
2019-03-24T11:38:26.951Z,13.49
2019-03-24T11:40:19.949Z,12.98
2019-03-24T11:41:19.993Z,12.90
2019-03-24T11:43:12.997Z,12.79
2019-03-24T11:44:13.034Z,12.83
2019-03-24T11:46:06.021Z,12.91
2019-03-24T11:47:06.079Z,12.94
2019-03-24T11:48:59.100Z,12.90
2019-03-24T11:49:59.139Z,12.97
2019-03-24T11:51:52.134Z,13.05
2019-03-24T11:52:52.185Z,13.15
2019-03-24T11:54:45.192Z,13.25
2019-03-24T11:55:45.234Z,13.28
2019-03-24T11:57:38.216Z,13.39
2019-03-24T11:58:38.330Z,13.30
2019-03-24T12:00:31.270Z,12.94
2019-03-24T12:01:38.253Z,12.86
2019-03-24T12:03:25.396Z,12.86
2019-03-24T12:04:24.381Z,12.87
2019-03-24T12:06:17.364Z,12.85
2019-03-24T12:07:17.422Z,12.91
2019-03-24T12:09:10.434Z,12.86
2019-03-24T12:10:10.464Z,12.75
2019-03-24T12:12:03.463Z,12.75
2019-03-24T12:13:03.548Z,12.73
2019-03-24T12:14:56.512Z,12.68
2019-03-24T12:15:56.555Z,12.85
2019-03-24T12:17:50.084Z,12.79
2019-03-24T12:18:50.125Z,12.85
2019-03-24T12:20:43.121Z,12.73
2019-03-24T12:21:43.211Z,12.78
2019-03-24T12:23:36.184Z,12.70
2019-03-24T12:24:36.223Z,12.64
2019-03-24T12:26:29.219Z,12.50
2019-03-24T12:27:29.266Z,12.54
2019-03-24T12:29:22.258Z,12.40
2019-03-24T12:30:22.314Z,12.43
2019-03-24T12:32:15.675Z,12.55
2019-03-24T12:33:15.392Z,12.49
2019-03-24T12:35:08.401Z,12.50
2019-03-24T12:36:08.446Z,12.42
2019-03-24T12:38:01.445Z,12.37
2019-03-24T12:39:01.488Z,12.32
2019-03-24T12:40:54.485Z,12.42
2019-03-24T12:41:54.524Z,12.53
2019-03-24T12:43:47.520Z,12.47
2019-03-24T12:44:47.568Z,12.46
2019-03-24T12:46:40.577Z,12.43
2019-03-24T12:47:40.742Z,12.40
2019-03-24T12:49:33.639Z,12.17
2019-03-24T12:50:33.677Z,12.10
2019-03-24T12:52:26.677Z,12.07
2019-03-24T12:53:26.719Z,12.02
2019-03-24T12:55:19.717Z,12.00
2019-03-24T12:56:19.766Z,12.03
2019-03-24T12:58:12.775Z,12.04
2019-03-24T12:59:12.802Z,12.02
2019-03-24T13:01:05.784Z,11.97
2019-03-24T13:02:05.860Z,11.90
2019-03-24T13:03:58.857Z,11.87
2019-03-24T13:04:58.893Z,11.90
2019-03-24T13:06:51.898Z,11.77
2019-03-24T13:07:51.934Z,11.73
2019-03-24T13:09:44.940Z,11.75
2019-03-24T13:10:44.983Z,11.83
2019-03-24T13:12:37.961Z,11.97
2019-03-24T13:13:38.030Z,12.00
2019-03-24T13:15:38.562Z,12.09
2019-03-24T13:16:31.071Z,12.02
2019-03-24T13:18:24.567Z,12.13
2019-03-24T13:19:24.619Z,12.10
2019-03-24T13:21:17.629Z,12.25
2019-03-24T13:22:17.662Z,12.21
2019-03-24T13:24:10.661Z,12.10
2019-03-24T13:25:10.704Z,12.07
2019-03-24T13:27:04.725Z,12.13
2019-03-24T13:28:03.755Z,12.00
2019-03-24T13:29:56.738Z,12.06
2019-03-24T13:30:56.792Z,12.09
2019-03-24T13:32:49.784Z,12.06
2019-03-24T13:33:49.817Z,12.06
2019-03-24T13:35:43.015Z,12.03
2019-03-24T13:36:42.856Z,12.07
2019-03-24T13:38:35.883Z,12.06
2019-03-24T13:39:35.911Z,11.99
2019-03-24T13:41:28.916Z,11.95
2019-03-24T13:42:28.950Z,12.10
2019-03-24T13:44:21.959Z,12.15
2019-03-24T13:45:21.989Z,12.15
2019-03-24T13:47:15.064Z,12.25
2019-03-24T13:48:15.035Z,12.35
2019-03-24T13:50:08.038Z,12.54
2019-03-24T13:51:08.097Z,12.50
2019-03-24T13:53:01.066Z,12.57
2019-03-24T13:54:01.124Z,12.62
2019-03-24T13:56:09.136Z,12.82
2019-03-24T13:57:09.177Z,12.76
2019-03-24T13:59:02.167Z,12.67
2019-03-24T14:00:02.222Z,12.65
2019-03-24T14:01:55.234Z,12.49
2019-03-24T14:02:55.374Z,12.46
2019-03-24T14:04:48.292Z,12.54
2019-03-24T14:05:48.312Z,12.45
2019-03-24T14:07:41.297Z,12.37
2019-03-24T14:08:41.415Z,12.27
2019-03-24T14:10:34.376Z,12.36
2019-03-24T14:11:34.396Z,12.43
2019-03-24T14:13:27.396Z,12.39
2019-03-24T14:14:27.435Z,12.39
2019-03-24T14:16:20.430Z,12.35
2019-03-24T14:17:20.493Z,12.32
2019-03-24T14:19:13.506Z,12.27
2019-03-24T14:20:13.546Z,12.28
2019-03-24T14:22:06.551Z,12.27
2019-03-24T14:23:06.600Z,12.22
2019-03-24T14:24:59.586Z,12.20
2019-03-24T14:25:59.637Z,12.13
2019-03-24T14:27:52.673Z,12.06
2019-03-24T14:28:52.667Z,12.10
2019-03-24T14:30:45.719Z,12.12
2019-03-24T14:31:45.772Z,12.09
2019-03-24T14:33:38.782Z,12.15
2019-03-24T14:34:38.814Z,12.13
2019-03-24T14:36:31.798Z,12.40
2019-03-24T14:37:31.852Z,12.53
2019-03-24T14:39:24.878Z,12.65
2019-03-24T14:40:24.909Z,12.68
2019-03-24T14:42:17.893Z,12.90
2019-03-24T14:43:17.953Z,13.00
2019-03-24T14:45:10.968Z,13.22
2019-03-24T14:46:11.007Z,13.22
2019-03-24T14:48:04.061Z,13.41
2019-03-24T14:49:04.102Z,13.54
2019-03-24T14:50:57.082Z,13.20
2019-03-24T14:51:57.141Z,13.03
2019-03-24T14:53:50.141Z,12.78
2019-03-24T14:54:50.181Z,12.73
2019-03-24T14:56:43.160Z,12.54
2019-03-24T14:57:43.216Z,12.53
2019-03-24T14:59:36.216Z,12.57
2019-03-24T15:00:36.256Z,12.54
2019-03-24T15:02:29.240Z,12.35
2019-03-24T15:03:29.298Z,12.36
2019-03-24T15:05:22.304Z,12.27
2019-03-24T15:06:22.345Z,12.21
2019-03-24T15:08:15.334Z,12.10
2019-03-24T15:09:15.389Z,12.20
2019-03-24T15:11:08.396Z,12.17
2019-03-24T15:12:08.427Z,12.09
2019-03-24T15:14:01.429Z,12.07
2019-03-24T15:15:01.484Z,12.13
2019-03-24T15:16:54.487Z,12.07
2019-03-24T15:17:54.525Z,12.12
2019-03-24T15:19:47.529Z,12.21
2019-03-24T15:20:47.560Z,12.22
2019-03-24T15:22:40.542Z,12.25
2019-03-24T15:23:40.602Z,12.21
2019-03-24T15:25:33.600Z,12.20
2019-03-24T15:26:33.647Z,12.21
2019-03-24T15:28:26.650Z,12.10
2019-03-24T15:29:26.680Z,12.09
2019-03-24T15:31:19.664Z,12.07
2019-03-24T15:32:19.718Z,12.06
2019-03-24T15:34:12.735Z,12.04
2019-03-24T15:35:12.766Z,12.06
2019-03-24T15:37:05.744Z,11.99
2019-03-24T15:38:08.750Z,12.02
2019-03-24T15:39:58.813Z,12.06
2019-03-24T15:40:58.840Z,12.02
2019-03-24T15:42:51.824Z,12.07
2019-03-24T15:43:51.881Z,11.95
2019-03-24T15:45:44.889Z,12.10
2019-03-24T15:46:44.936Z,11.99
2019-03-24T15:48:37.931Z,11.88
2019-03-24T15:49:37.963Z,11.91
2019-03-24T15:51:30.975Z,11.95
2019-03-24T15:52:31.011Z,11.88
2019-03-24T15:54:24.004Z,11.95
2019-03-24T15:55:24.046Z,12.03
2019-03-24T15:57:17.052Z,11.94
2019-03-24T15:58:17.087Z,11.97
2019-03-24T16:00:10.094Z,11.94
2019-03-24T16:01:10.122Z,11.94
2019-03-24T16:03:03.108Z,11.97
2019-03-24T16:04:03.166Z,11.90
2019-03-24T16:05:56.504Z,11.90
2019-03-24T16:06:56.211Z,11.95
2019-03-24T16:08:49.206Z,11.95
2019-03-24T16:09:49.261Z,11.97
2019-03-24T16:11:42.271Z,11.94
2019-03-24T16:12:42.296Z,11.90
2019-03-24T16:14:35.276Z,11.84
2019-03-24T16:15:35.340Z,11.81
2019-03-24T16:17:28.341Z,11.81
2019-03-24T16:18:28.373Z,11.80
2019-03-24T16:20:21.363Z,11.78
2019-03-24T16:21:27.787Z,11.83
2019-03-24T16:23:14.419Z,11.73
2019-03-24T16:24:14.499Z,11.73
2019-03-24T16:26:07.974Z,11.65
2019-03-24T16:27:08.003Z,11.69
2019-03-24T16:29:01.009Z,11.62
2019-03-24T16:30:01.039Z,11.55
2019-03-24T16:31:54.016Z,11.60
2019-03-24T16:32:54.075Z,11.59
2019-03-24T16:34:47.084Z,11.65
2019-03-24T16:35:47.112Z,11.51
2019-03-24T16:37:40.094Z,11.54
2019-03-24T16:38:48.528Z,11.59
2019-03-24T16:40:33.161Z,11.47
2019-03-24T16:41:33.190Z,11.55
2019-03-24T16:43:26.217Z,11.54
2019-03-24T16:44:26.232Z,11.52
2019-03-24T16:46:19.757Z,11.51
2019-03-24T16:47:19.772Z,11.52
2019-03-24T16:49:12.765Z,11.44
2019-03-24T16:50:12.809Z,11.45
2019-03-24T16:52:05.796Z,11.43
2019-03-24T16:53:05.850Z,11.43
2019-03-24T16:54:58.847Z,11.37
2019-03-24T16:55:58.887Z,11.41
2019-03-24T16:57:51.878Z,11.36
2019-03-24T16:58:51.954Z,11.36
2019-03-24T17:00:44.924Z,11.27
2019-03-24T17:01:44.962Z,11.22
2019-03-24T17:03:37.942Z,11.27
2019-03-24T17:04:38.016Z,11.27
2019-03-24T17:06:31.053Z,11.23
2019-03-24T17:07:31.056Z,11.17
2019-03-24T17:09:24.026Z,11.19
2019-03-24T17:10:24.082Z,11.12
2019-03-24T17:12:17.579Z,11.14
2019-03-24T17:13:17.129Z,11.10
2019-03-24T17:15:10.137Z,11.05
2019-03-24T17:16:10.169Z,11.04
2019-03-24T17:18:03.227Z,11.04
2019-03-24T17:19:03.208Z,11.02
2019-03-24T17:20:56.191Z,10.92
2019-03-24T17:21:56.250Z,10.92
2019-03-24T17:23:49.265Z,10.81
2019-03-24T17:24:49.303Z,10.84
2019-03-24T17:26:42.323Z,10.87
2019-03-24T17:27:42.338Z,10.87
2019-03-24T17:29:35.326Z,10.72
2019-03-24T17:30:35.379Z,10.76
2019-03-24T17:32:28.406Z,10.64
2019-03-24T17:33:28.421Z,10.67
2019-03-24T17:35:21.401Z,10.61
2019-03-24T17:36:21.453Z,10.61
2019-03-24T17:38:14.488Z,10.67
2019-03-24T17:39:14.522Z,10.56
2019-03-24T17:41:07.530Z,10.53
2019-03-24T17:42:07.553Z,10.41
2019-03-24T17:44:03.422Z,10.51
2019-03-24T17:45:00.589Z,10.34
2019-03-24T17:46:53.602Z,10.41
2019-03-24T17:47:53.626Z,10.37
2019-03-24T17:49:46.610Z,10.37
2019-03-24T17:50:46.660Z,10.25
2019-03-24T17:52:39.658Z,10.31
2019-03-24T17:53:39.697Z,10.22
2019-03-24T17:55:32.675Z,10.20
2019-03-24T17:56:32.739Z,10.26
2019-03-24T17:58:25.745Z,10.15
2019-03-24T17:59:25.769Z,10.16
2019-03-24T18:01:18.752Z,10.15
2019-03-24T18:02:18.804Z,10.04
2019-03-24T18:04:11.803Z,10.01
2019-03-24T18:05:11.842Z,10.01
2019-03-24T18:07:04.846Z,10.02
2019-03-24T18:08:04.889Z,9.89
2019-03-24T18:09:57.885Z,9.89
2019-03-24T18:10:57.944Z,9.87
2019-03-24T18:12:50.970Z,9.83
2019-03-24T18:13:50.976Z,9.80
2019-03-24T18:15:43.975Z,9.74
2019-03-24T18:16:44.037Z,9.65
2019-03-24T18:18:37.031Z,9.62
2019-03-24T18:19:37.070Z,9.61
2019-03-24T18:21:30.060Z,9.48
2019-03-24T18:22:30.119Z,9.50
2019-03-24T18:24:23.146Z,9.40
2019-03-24T18:25:23.178Z,9.41
2019-03-24T18:27:16.163Z,9.32
2019-03-24T18:28:16.222Z,9.26
2019-03-24T18:30:09.283Z,9.21
2019-03-24T18:31:09.440Z,9.22
2019-03-24T18:33:02.301Z,9.21
2019-03-24T18:34:02.350Z,9.25
2019-03-24T18:35:55.389Z,9.21
2019-03-24T18:36:55.391Z,9.21
2019-03-24T18:38:48.368Z,9.19
2019-03-24T18:39:48.482Z,9.11
2019-03-24T18:41:41.430Z,9.11
2019-03-24T18:42:41.458Z,9.06
2019-03-24T18:44:34.439Z,9.06
2019-03-24T18:45:34.494Z,8.99
2019-03-24T18:47:27.523Z,8.97
2019-03-24T18:48:27.531Z,8.88
2019-03-24T18:50:20.548Z,8.84
2019-03-24T18:51:20.585Z,8.71
2019-03-24T18:53:13.577Z,8.70